Altmar, NY (13302)

1:16 AM EDT on August 31, 2015 (GMT -0400)
Lorton Lake Back End | | Change Station
CLOSE
Current Station
Personal Weather Station
Location: Altmar, NY
Elevation: 870 ft
Nearby Weather Stations

Elev 870 ft 43.50 °N, 75.89 °W | Updated 10 minutes ago

Clear
Clear
60.2 °F
Feels Like 60.2 °F
N
0.0
Wind Variable Wind from WNW

Today
High -- | Low -- °F
--% Chance of Precip.
Yesterday
High -- | Low -- °F
Precip. -- in
6:26 AM 7:41 PM
Full, 97% visible
Pressure 30.02 in
Visibility 4.0 miles
Clouds Clear
Dew Point 60 °F
Humidity 98%
Rainfall 0.01 in
Snow Depth Not available.
UV 0 out of 12
Pollen 9.20 out of 12
Air Quality Not available.
Flu Activity Not available.
METAR KFZY 310454Z AUTO 00000KT 4SM BR CLR 17/16 A3002 RMK AO2 SLP165 T01670156 402720161
Pressure 30.02 in
Visibility 4.0 miles
Clouds Clear
Dew Point 60 °F
Humidity 98%
Rainfall 0.01 in
Snow Depth Not available.
UV 0 out of 12
Pollen 9.20 out of 12
Air Quality Not available.
Flu Activity Not available.
METAR KFZY 310454Z AUTO 00000KT 4SM BR CLR 17/16 A3002 RMK AO2 SLP165 T01670156 402720161

10-Day Weather Forecast

×

Almanac

Astronomy

Aug. 31, 2015 Rise Set
Actual Time
Civil Twilight
Nautical Twilight
Astronomical Twilight
Moon
Length of Visible Light
Length of Day
Tomorrow will be .
, % of the Moon is Illuminated

Today's Extremes

State Highs State Lows

Community

WunderPhotos

Upload Photos

1,851,211 photos uploaded!

WunderBlogs® & News

Nearby

Air Quality

  Air Quality AQ Index Pollutant
Not available.

Snow Depth

Station Depth Elevation

Earthquake Activity

City Distance Mag. Time & Date
Minimum magnitude displayed is 2.5.

Coastal Water Temperatures

Place Temperature

Stations

Nearby Weather Stations

Station Location Temp. Windchill Dew Point Humidity Wind Precip. Elev Updated Type